sensor_id;sensor_type;location;lat;lon;timestamp;pressure;altitude;pressure_sealevel;temperature;humidity
8890;BME280;4481;43.406;24.454;2022-11-12T00:01:10;78541.41;;;-144.09;100.00
8890;BME280;4481;43.406;24.454;2022-11-12T00:03:36;78533.03;;;-144.09;100.00
8890;BME280;4481;43.406;24.454;2022-11-12T00:06:03;78528.88;;;-144.09;100.00
8890;BME280;4481;43.406;24.454;2022-11-12T00:08:29;78583.22;;;-144.09;100.00
8890;BME280;4481;43.406;24.454;2022-11-12T00:10:55;78604.13;;;-144.09;100.00
8890;BME280;4481;43.406;24.454;2022-11-12T00:13:22;78591.59;;;-144.09;100.00
8890;BME280;4481;43.406;24.454;2022-11-12T00:15:48;78589.50;;;-144.09;100.00
8890;BME280;4481;43.406;24.454;2022-11-12T00:18:14;78593.69;;;-144.09;100.00
8890;BME280;4481;43.406;24.454;2022-11-12T00:20:40;78612.50;;;-144.09;100.00
8890;BME280;4481;43.406;24.454;2022-11-12T00:23:07;78612.50;;;-144.09;100.00
8890;BME280;4481;43.406;24.454;2022-11-12T00:25:33;78595.78;;;-144.09;100.00
8890;BME280;4481;43.406;24.454;2022-11-12T00:28:01;78595.78;;;-144.09;100.00
8890;BME280;4481;43.406;24.454;2022-11-12T00:30:28;78597.88;;;-144.09;100.00
8890;BME280;4481;43.406;24.454;2022-11-12T00:32:54;78591.59;;;-144.09;100.00
8890;BME280;4481;43.406;24.454;2022-11-12T00:35:20;78579.03;;;-144.09;100.00
8890;BME280;4481;43.406;24.454;2022-11-12T00:37:46;78566.50;;;-144.09;100.00
8890;BME280;4481;43.406;24.454;2022-11-12T00:40:13;78566.50;;;-144.09;100.00
8890;BME280;4481;43.406;24.454;2022-11-12T00:42:40;78553.97;;;-144.09;100.00
8890;BME280;4481;43.406;24.454;2022-11-12T00:45:06;78549.78;;;-144.09;100.00
8890;BME280;4481;43.406;24.454;2022-11-12T00:47:34;78545.59;;;-144.09;100.00
8890;BME280;4481;43.406;24.454;2022-11-12T00:50:00;78547.69;;;-144.09;100.00
8890;BME280;4481;43.406;24.454;2022-11-12T00:52:26;78556.03;;;-144.09;100.00
8890;BME280;4481;43.406;24.454;2022-11-12T00:54:52;78551.88;;;-144.09;100.00
8890;BME280;4481;43.406;24.454;2022-11-12T00:57:18;78593.69;;;-144.09;100.00
8890;BME280;4481;43.406;24.454;2022-11-12T00:59:45;78608.31;;;-144.09;100.00
8890;BME280;4481;43.406;24.454;2022-11-12T01:02:11;78641.78;;;-144.09;100.00
8890;BME280;4481;43.406;24.454;2022-11-12T01:04:38;78645.94;;;-144.09;100.00
8890;BME280;4481;43.406;24.454;2022-11-12T01:07:04;78650.13;;;-144.09;100.00
8890;BME280;4481;43.406;24.454;2022-11-12T01:09:30;78645.94;;;-144.09;100.00
8890;BME280;4481;43.406;24.454;2022-11-12T01:11:56;78633.41;;;-144.09;100.00
8890;BME280;4481;43.406;24.454;2022-11-12T01:14:22;78633.41;;;-144.09;100.00
8890;BME280;4481;43.406;24.454;2022-11-12T01:16:49;78639.69;;;-144.09;100.00
8890;BME280;4481;43.406;24.454;2022-11-12T01:19:15;78648.03;;;-144.09;100.00
8890;BME280;4481;43.406;24.454;2022-11-12T01:21:43;78637.59;;;-144.09;100.00
8890;BME280;4481;43.406;24.454;2022-11-12T01:24:10;78627.13;;;-144.09;100.00
8890;BME280;4481;43.406;24.454;2022-11-12T01:26:36;78612.50;;;-144.09;100.00
8890;BME280;4481;43.406;24.454;2022-11-12T01:29:03;78585.31;;;-144.09;100.00
8890;BME280;4481;43.406;24.454;2022-11-12T01:31:31;78595.78;;;-144.09;100.00
8890;BME280;4481;43.406;24.454;2022-11-12T01:34:00;78589.50;;;-144.09;100.00
8890;BME280;4481;43.406;24.454;2022-11-12T01:36:30;78595.78;;;-144.09;100.00
8890;BME280;4481;43.406;24.454;2022-11-12T01:38:57;78591.59;;;-144.09;100.00
8890;BME280;4481;43.406;24.454;2022-11-12T01:41:25;78568.59;;;-144.09;100.00
8890;BME280;4481;43.406;24.454;2022-11-12T01:44:15;78541.41;;;-144.09;100.00
8890;BME280;4481;43.406;24.454;2022-11-12T01:46:54;78528.88;;;-144.09;100.00
8890;BME280;4481;43.406;24.454;2022-11-12T01:49:27;78524.69;;;-144.09;100.00
8890;BME280;4481;43.406;24.454;2022-11-12T01:51:58;78520.50;;;-144.09;100.00
8890;BME280;4481;43.406;24.454;2022-11-12T01:54:28;78533.03;;;-144.09;100.00
8890;BME280;4481;43.406;24.454;2022-11-12T01:56:56;78533.03;;;-144.09;100.00
8890;BME280;4481;43.406;24.454;2022-11-12T01:59:26;78535.13;;;-144.09;100.00
8890;BME280;4481;43.406;24.454;2022-11-12T02:01:54;78526.78;;;-144.09;100.00
8890;BME280;4481;43.406;24.454;2022-11-12T02:04:21;78518.41;;;-144.09;100.00
8890;BME280;4481;43.406;24.454;2022-11-12T02:06:50;78522.59;;;-144.09;100.00
8890;BME280;4481;43.406;24.454;2022-11-12T02:09:17;78537.22;;;-144.09;100.00
8890;BME280;4481;43.406;24.454;2022-11-12T02:11:43;78537.22;;;-144.09;100.00
8890;BME280;4481;43.406;24.454;2022-11-12T02:14:09;78541.41;;;-144.09;100.00
8890;BME280;4481;43.406;24.454;2022-11-12T02:16:37;78543.50;;;-144.09;100.00
8890;BME280;4481;43.406;24.454;2022-11-12T02:19:05;78553.97;;;-144.09;100.00
8890;BME280;4481;43.406;24.454;2022-11-12T02:21:33;78543.50;;;-144.09;100.00
8890;BME280;4481;43.406;24.454;2022-11-12T02:24:00;78551.88;;;-144.09;100.00
8890;BME280;4481;43.406;24.454;2022-11-12T02:26:29;78551.88;;;-144.09;100.00
8890;BME280;4481;43.406;24.454;2022-11-12T02:28:56;78543.50;;;-144.09;100.00
8890;BME280;4481;43.406;24.454;2022-11-12T02:31:22;78547.69;;;-144.09;100.00
8890;BME280;4481;43.406;24.454;2022-11-12T02:33:49;78560.22;;;-144.09;100.00
8890;BME280;4481;43.406;24.454;2022-11-12T02:36:15;78568.59;;;-144.09;100.00
8890;BME280;4481;43.406;24.454;2022-11-12T02:38:42;78566.50;;;-144.09;100.00
8890;BME280;4481;43.406;24.454;2022-11-12T02:41:08;78566.50;;;-144.09;100.00
8890;BME280;4481;43.406;24.454;2022-11-12T02:43:34;78574.88;;;-144.09;100.00
8890;BME280;4481;43.406;24.454;2022-11-12T02:46:00;78574.88;;;-144.09;100.00
8890;BME280;4481;43.406;24.454;2022-11-12T02:48:27;78579.03;;;-144.09;100.00
8890;BME280;4481;43.406;24.454;2022-11-12T02:50:53;78585.31;;;-144.09;100.00
8890;BME280;4481;43.406;24.454;2022-11-12T02:53:19;78570.69;;;-144.09;100.00
8890;BME280;4481;43.406;24.454;2022-11-12T02:55:46;78562.31;;;-144.09;100.00
8890;BME280;4481;43.406;24.454;2022-11-12T02:58:12;78593.69;;;-144.09;100.00
8890;BME280;4481;43.406;24.454;2022-11-12T03:00:39;78585.31;;;-144.09;100.00
8890;BME280;4481;43.406;24.454;2022-11-12T03:03:05;78585.31;;;-144.09;100.00
8890;BME280;4481;43.406;24.454;2022-11-12T03:05:33;78583.22;;;-144.09;100.00
8890;BME280;4481;43.406;24.454;2022-11-12T03:08:01;78614.59;;;-144.09;100.00
8890;BME280;4481;43.406;24.454;2022-11-12T03:10:28;78620.84;;;-144.09;100.00
8890;BME280;4481;43.406;24.454;2022-11-12T03:12:56;78625.03;;;-144.09;100.00
8890;BME280;4481;43.406;24.454;2022-11-12T03:15:23;78639.69;;;-144.09;100.00
8890;BME280;4481;43.406;24.454;2022-11-12T03:17:49;78654.31;;;-144.09;100.00
8890;BME280;4481;43.406;24.454;2022-11-12T03:20:15;78643.84;;;-144.09;100.00
8890;BME280;4481;43.406;24.454;2022-11-12T03:22:42;78675.22;;;-144.09;100.00
8890;BME280;4481;43.406;24.454;2022-11-12T03:25:19;78677.31;;;-144.09;100.00
8890;BME280;4481;43.406;24.454;2022-11-12T03:27:45;78656.41;;;-144.09;100.00
8890;BME280;4481;43.406;24.454;2022-11-12T03:30:12;78652.22;;;-144.09;100.00
8890;BME280;4481;43.406;24.454;2022-11-12T03:32:38;78643.84;;;-144.09;100.00
8890;BME280;4481;43.406;24.454;2022-11-12T03:35:05;78625.03;;;-144.09;100.00
8890;BME280;4481;43.406;24.454;2022-11-12T03:37:32;78616.69;;;-144.09;100.00
8890;BME280;4481;43.406;24.454;2022-11-12T03:39:58;78616.69;;;-144.09;100.00
8890;BME280;4481;43.406;24.454;2022-11-12T03:42:24;78618.78;;;-144.09;100.00
8890;BME280;4481;43.406;24.454;2022-11-12T03:44:50;78612.50;;;-144.09;100.00
8890;BME280;4481;43.406;24.454;2022-11-12T03:47:17;78602.03;;;-144.09;100.00
8890;BME280;4481;43.406;24.454;2022-11-12T03:49:43;78604.13;;;-144.09;100.00
8890;BME280;4481;43.406;24.454;2022-11-12T03:52:09;78604.13;;;-144.09;100.00
8890;BME280;4481;43.406;24.454;2022-11-12T03:54:35;78643.84;;;-144.09;100.00
8890;BME280;4481;43.406;24.454;2022-11-12T03:57:01;78652.22;;;-144.09;100.00
8890;BME280;4481;43.406;24.454;2022-11-12T03:59:28;78625.03;;;-144.09;100.00
8890;BME280;4481;43.406;24.454;2022-11-12T04:01:54;78627.13;;;-144.09;100.00
8890;BME280;4481;43.406;24.454;2022-11-12T04:04:21;78645.94;;;-144.09;100.00
8890;BME280;4481;43.406;24.454;2022-11-12T04:06:47;78683.59;;;-144.09;100.00
8890;BME280;4481;43.406;24.454;2022-11-12T04:09:31;78662.69;;;-144.09;100.00
8890;BME280;4481;43.406;24.454;2022-11-12T04:11:58;78645.94;;;-144.09;100.00
8890;BME280;4481;43.406;24.454;2022-11-12T04:14:44;78631.31;;;-144.09;100.00
8890;BME280;4481;43.406;24.454;2022-11-12T04:17:10;78629.22;;;-144.09;100.00
8890;BME280;4481;43.406;24.454;2022-11-12T04:19:55;78608.31;;;-144.09;100.00
8890;BME280;4481;43.406;24.454;2022-11-12T04:22:39;78608.31;;;-144.09;100.00
8890;BME280;4481;43.406;24.454;2022-11-12T04:25:05;78608.31;;;-144.09;100.00
8890;BME280;4481;43.406;24.454;2022-11-12T04:27:49;78599.94;;;-144.09;100.00
8890;BME280;4481;43.406;24.454;2022-11-12T04:30:16;78595.78;;;-144.09;100.00
8890;BME280;4481;43.406;24.454;2022-11-12T04:32:47;78595.78;;;-144.09;100.00
8890;BME280;4481;43.406;24.454;2022-11-12T04:35:15;78597.88;;;-144.09;100.00
8890;BME280;4481;43.406;24.454;2022-11-12T04:37:43;78589.50;;;-144.09;100.00
8890;BME280;4481;43.406;24.454;2022-11-12T04:40:11;78583.22;;;-144.09;100.00
8890;BME280;4481;43.406;24.454;2022-11-12T04:42:55;78583.22;;;-144.09;100.00
8890;BME280;4481;43.406;24.454;2022-11-12T04:45:40;78597.88;;;-144.09;100.00
8890;BME280;4481;43.406;24.454;2022-11-12T04:48:07;78602.03;;;-144.09;100.00
8890;BME280;4481;43.406;24.454;2022-11-12T04:50:35;78585.31;;;-144.09;100.00
8890;BME280;4481;43.406;24.454;2022-11-12T04:53:01;78574.88;;;-144.09;100.00
8890;BME280;4481;43.406;24.454;2022-11-12T04:55:27;78572.78;;;-144.09;100.00
8890;BME280;4481;43.406;24.454;2022-11-12T04:57:54;78568.59;;;-144.09;100.00
8890;BME280;4481;43.406;24.454;2022-11-12T05:00:20;78583.22;;;-144.09;100.00
8890;BME280;4481;43.406;24.454;2022-11-12T05:02:48;78581.13;;;-144.09;100.00
8890;BME280;4481;43.406;24.454;2022-11-12T05:05:14;78581.13;;;-144.09;100.00
8890;BME280;4481;43.406;24.454;2022-11-12T05:07:41;78597.88;;;-144.09;100.00
8890;BME280;4481;43.406;24.454;2022-11-12T05:10:07;78589.50;;;-144.09;100.00
8890;BME280;4481;43.406;24.454;2022-11-12T05:12:34;78587.41;;;-144.09;100.00
8890;BME280;4481;43.406;24.454;2022-11-12T05:15:00;78602.03;;;-144.09;100.00
8890;BME280;4481;43.406;24.454;2022-11-12T05:17:27;78602.03;;;-144.09;100.00
8890;BME280;4481;43.406;24.454;2022-11-12T05:19:53;78597.88;;;-144.09;100.00
8890;BME280;4481;43.406;24.454;2022-11-12T05:22:19;78587.41;;;-144.09;100.00
8890;BME280;4481;43.406;24.454;2022-11-12T05:24:46;78589.50;;;-144.09;100.00
8890;BME280;4481;43.406;24.454;2022-11-12T05:27:15;78595.78;;;-144.09;100.00
8890;BME280;4481;43.406;24.454;2022-11-12T05:29:41;78606.22;;;-144.09;100.00
8890;BME280;4481;43.406;24.454;2022-11-12T05:32:11;78608.31;;;-144.09;100.00
8890;BME280;4481;43.406;24.454;2022-11-12T05:34:38;78629.22;;;-144.09;100.00
8890;BME280;4481;43.406;24.454;2022-11-12T05:37:05;78635.50;;;-144.09;100.00
8890;BME280;4481;43.406;24.454;2022-11-12T05:39:32;78641.78;;;-144.09;100.00
8890;BME280;4481;43.406;24.454;2022-11-12T05:41:59;78637.59;;;-144.09;100.00
8890;BME280;4481;43.406;24.454;2022-11-12T05:44:25;78639.69;;;-144.09;100.00
8890;BME280;4481;43.406;24.454;2022-11-12T05:46:51;78641.78;;;-144.09;100.00
8890;BME280;4481;43.406;24.454;2022-11-12T05:49:18;78639.69;;;-144.09;100.00
8890;BME280;4481;43.406;24.454;2022-11-12T05:51:44;78629.22;;;-144.09;100.00
8890;BME280;4481;43.406;24.454;2022-11-12T05:54:11;78635.50;;;-144.09;100.00
8890;BME280;4481;43.406;24.454;2022-11-12T05:56:37;78639.69;;;-144.09;100.00
8890;BME280;4481;43.406;24.454;2022-11-12T05:59:06;78618.78;;;-144.09;100.00
8890;BME280;4481;43.406;24.454;2022-11-12T06:01:33;78625.03;;;-144.09;100.00
8890;BME280;4481;43.406;24.454;2022-11-12T06:04:00;78622.94;;;-144.09;100.00
8890;BME280;4481;43.406;24.454;2022-11-12T06:06:26;78620.84;;;-144.09;100.00
8890;BME280;4481;43.406;24.454;2022-11-12T06:08:52;78625.03;;;-144.09;100.00
8890;BME280;4481;43.406;24.454;2022-11-12T06:11:18;78620.84;;;-144.09;100.00
8890;BME280;4481;43.406;24.454;2022-11-12T06:13:45;78637.59;;;-144.09;100.00
8890;BME280;4481;43.406;24.454;2022-11-12T06:16:12;78637.59;;;-144.09;100.00
8890;BME280;4481;43.406;24.454;2022-11-12T06:18:38;78639.69;;;-144.09;100.00
8890;BME280;4481;43.406;24.454;2022-11-12T06:21:05;78645.94;;;-144.09;100.00
8890;BME280;4481;43.406;24.454;2022-11-12T06:23:53;78643.84;;;-144.09;100.00
8890;BME280;4481;43.406;24.454;2022-11-12T06:26:20;78641.78;;;-144.09;100.00
8890;BME280;4481;43.406;24.454;2022-11-12T06:28:47;78633.41;;;-144.09;100.00
8890;BME280;4481;43.406;24.454;2022-11-12T06:31:15;78631.31;;;-144.09;100.00
8890;BME280;4481;43.406;24.454;2022-11-12T06:33:41;78641.78;;;-144.09;100.00
8890;BME280;4481;43.406;24.454;2022-11-12T06:36:09;78637.59;;;-144.09;100.00
8890;BME280;4481;43.406;24.454;2022-11-12T06:38:38;78637.59;;;-144.09;100.00
8890;BME280;4481;43.406;24.454;2022-11-12T06:41:06;78627.13;;;-144.09;100.00
8890;BME280;4481;43.406;24.454;2022-11-12T06:43:33;78635.50;;;-144.09;100.00
8890;BME280;4481;43.406;24.454;2022-11-12T06:46:00;78639.69;;;-144.09;100.00
8890;BME280;4481;43.406;24.454;2022-11-12T06:48:28;78637.59;;;-144.09;100.00
8890;BME280;4481;43.406;24.454;2022-11-12T06:50:54;78631.31;;;-144.09;100.00
8890;BME280;4481;43.406;24.454;2022-11-12T06:53:21;78629.22;;;-144.09;100.00
8890;BME280;4481;43.406;24.454;2022-11-12T06:55:47;78618.78;;;-144.09;100.00
8890;BME280;4481;43.406;24.454;2022-11-12T06:58:13;78618.78;;;-144.09;100.00
8890;BME280;4481;43.406;24.454;2022-11-12T07:00:39;78608.31;;;-144.09;100.00
8890;BME280;4481;43.406;24.454;2022-11-12T07:03:06;78608.31;;;-144.09;100.00
8890;BME280;4481;43.406;24.454;2022-11-12T07:05:35;78597.88;;;-144.09;100.00
8890;BME280;4481;43.406;24.454;2022-11-12T07:08:02;78593.69;;;-144.09;100.00
8890;BME280;4481;43.406;24.454;2022-11-12T07:10:28;78587.41;;;-144.09;100.00
8890;BME280;4481;43.406;24.454;2022-11-12T07:12:54;78570.69;;;-144.09;100.00
8890;BME280;4481;43.406;24.454;2022-11-12T07:15:21;78570.69;;;-144.09;100.00
8890;BME280;4481;43.406;24.454;2022-11-12T07:17:47;78606.22;;;-144.09;100.00
8890;BME280;4481;43.406;24.454;2022-11-12T07:20:13;78608.31;;;-144.09;100.00
8890;BME280;4481;43.406;24.454;2022-11-12T07:22:40;78572.78;;;-144.09;100.00
8890;BME280;4481;43.406;24.454;2022-11-12T07:25:07;78545.59;;;-144.09;100.00
8890;BME280;4481;43.406;24.454;2022-11-12T07:27:33;78541.41;;;-144.09;100.00
8890;BME280;4481;43.406;24.454;2022-11-12T07:29:59;78499.59;;;-144.09;100.00
8890;BME280;4481;43.406;24.454;2022-11-12T07:32:25;78470.31;;;-144.09;100.00
8890;BME280;4481;43.406;24.454;2022-11-12T07:34:51;78445.25;;;-144.09;100.00
8890;BME280;4481;43.406;24.454;2022-11-12T07:37:18;78422.25;;;-144.09;100.00
8890;BME280;4481;43.406;24.454;2022-11-12T07:39:44;78413.88;;;-144.09;100.00
8890;BME280;4481;43.406;24.454;2022-11-12T07:42:10;78409.69;;;-144.09;100.00
8890;BME280;4481;43.406;24.454;2022-11-12T07:44:37;78399.25;;;-144.09;100.00
8890;BME280;4481;43.406;24.454;2022-11-12T07:47:03;78386.69;;;-144.09;100.00
8890;BME280;4481;43.406;24.454;2022-11-12T07:49:29;78382.50;;;-144.09;100.00
8890;BME280;4481;43.406;24.454;2022-11-12T07:51:55;78369.97;;;-144.09;100.00
8890;BME280;4481;43.406;24.454;2022-11-12T07:54:21;78367.88;;;-144.09;100.00
8890;BME280;4481;43.406;24.454;2022-11-12T07:56:48;78344.88;;;-144.09;100.00
8890;BME280;4481;43.406;24.454;2022-11-12T07:59:14;78336.53;;;-144.09;100.00
8890;BME280;4481;43.406;24.454;2022-11-12T08:01:40;78326.06;;;-144.09;100.00
8890;BME280;4481;43.406;24.454;2022-11-12T08:04:08;78328.16;;;-144.09;100.00
8890;BME280;4481;43.406;24.454;2022-11-12T08:06:36;78307.25;;;-144.09;100.00
8890;BME280;4481;43.406;24.454;2022-11-12T08:09:04;78288.44;;;-144.09;99.68
8890;BME280;4481;43.406;24.454;2022-11-12T08:11:31;78273.81;;;-144.09;99.34
8890;BME280;4481;43.406;24.454;2022-11-12T08:13:58;78275.91;;;-144.09;99.57
8890;BME280;4481;43.406;24.454;2022-11-12T08:16:24;78259.16;;;-144.09;98.90
8890;BME280;4481;43.406;24.454;2022-11-12T08:18:50;78255.00;;;-144.09;99.09
8890;BME280;4481;43.406;24.454;2022-11-12T08:21:17;78273.81;;;-144.09;98.58
8890;BME280;4481;43.406;24.454;2022-11-12T08:23:44;78319.78;;;-144.09;98.38
8890;BME280;4481;43.406;24.454;2022-11-12T08:26:12;78326.06;;;-144.09;98.87
8890;BME280;4481;43.406;24.454;2022-11-12T08:28:38;78307.25;;;-144.09;97.98
8890;BME280;4481;43.406;24.454;2022-11-12T08:31:07;78300.97;;;-144.09;97.79
8890;BME280;4481;43.406;24.454;2022-11-12T08:33:34;78277.97;;;-144.09;97.70
8890;BME280;4481;43.406;24.454;2022-11-12T08:36:01;78267.53;;;-144.09;96.87
8890;BME280;4481;43.406;24.454;2022-11-12T08:38:28;78265.44;;;-144.09;96.97
8890;BME280;4481;43.406;24.454;2022-11-12T08:40:54;78280.06;;;-144.09;96.91
8890;BME280;4481;43.406;24.454;2022-11-12T08:43:20;78250.81;;;-144.09;96.58
8890;BME280;4481;43.406;24.454;2022-11-12T08:45:46;78252.91;;;-144.09;96.54
8890;BME280;4481;43.406;24.454;2022-11-12T08:48:15;78255.00;;;-144.09;96.44
8890;BME280;4481;43.406;24.454;2022-11-12T08:50:41;78259.16;;;-144.09;96.77
8890;BME280;4481;43.406;24.454;2022-11-12T08:53:09;78290.53;;;-144.09;97.97
8890;BME280;4481;43.406;24.454;2022-11-12T08:55:36;78294.72;;;-144.09;98.28
8890;BME280;4481;43.406;24.454;2022-11-12T08:58:02;78282.16;;;-144.09;98.38
8890;BME280;4481;43.406;24.454;2022-11-12T09:00:29;78286.34;;;-144.09;97.88
8890;BME280;4481;43.406;24.454;2022-11-12T09:02:58;78349.06;;;-144.09;99.27
8890;BME280;4481;43.406;24.454;2022-11-12T09:05:25;78311.44;;;-144.09;98.92
8890;BME280;4481;43.406;24.454;2022-11-12T09:07:56;78307.25;;;-144.09;98.74
8890;BME280;4481;43.406;24.454;2022-11-12T09:10:22;78288.44;;;-144.09;98.26
8890;BME280;4481;43.406;24.454;2022-11-12T09:12:49;78303.06;;;-144.09;98.67
8890;BME280;4481;43.406;24.454;2022-11-12T09:15:16;78290.53;;;-144.09;98.50
8890;BME280;4481;43.406;24.454;2022-11-12T09:17:42;78257.06;;;-144.09;97.98
8890;BME280;4481;43.406;24.454;2022-11-12T09:20:09;78250.81;;;-144.09;97.22
8890;BME280;4481;43.406;24.454;2022-11-12T09:22:36;78265.44;;;-144.09;98.21
8890;BME280;4481;43.406;24.454;2022-11-12T09:25:02;78242.44;;;-144.09;97.42
8890;BME280;4481;43.406;24.454;2022-11-12T09:27:28;78211.09;;;-144.09;96.79
8890;BME280;4481;43.406;24.454;2022-11-12T09:29:55;78173.47;;;-144.09;96.22
8890;BME280;4481;43.406;24.454;2022-11-12T09:32:21;78171.38;;;-144.09;95.33
8890;BME280;4481;43.406;24.454;2022-11-12T09:34:47;78160.91;;;-144.09;95.07
8890;BME280;4481;43.406;24.454;2022-11-12T09:37:13;78209.00;;;-144.09;95.95
8890;BME280;4481;43.406;24.454;2022-11-12T09:39:40;78244.53;;;-144.09;97.89
8890;BME280;4481;43.406;24.454;2022-11-12T09:42:07;78277.97;;;-144.09;99.01
8890;BME280;4481;43.406;24.454;2022-11-12T09:44:35;78248.72;;;-144.09;98.34
8890;BME280;4481;43.406;24.454;2022-11-12T09:47:08;78192.28;;;-144.09;98.34
8890;BME280;4481;43.406;24.454;2022-11-12T09:49:40;78171.38;;;-144.09;97.19
8890;BME280;4481;43.406;24.454;2022-11-12T09:52:13;78194.34;;;-144.09;96.78
8890;BME280;4481;43.406;24.454;2022-11-12T09:54:42;78186.00;;;-144.09;96.97
8890;BME280;4481;43.406;24.454;2022-11-12T09:57:10;78177.63;;;-144.09;96.45
8890;BME280;4481;43.406;24.454;2022-11-12T09:59:39;78227.81;;;-144.09;97.35
8890;BME280;4481;43.406;24.454;2022-11-12T10:02:20;78236.16;;;-144.09;97.62
8890;BME280;4481;43.406;24.454;2022-11-12T10:05:01;78217.34;;;-144.09;97.53
8890;BME280;4481;43.406;24.454;2022-11-12T10:07:42;78186.00;;;-144.09;96.79
8890;BME280;4481;43.406;24.454;2022-11-12T10:10:14;78183.91;;;-144.09;96.16
8890;BME280;4481;43.406;24.454;2022-11-12T10:12:53;78227.81;;;-144.09;97.53
8890;BME280;4481;43.406;24.454;2022-11-12T10:15:36;78202.72;;;-144.09;97.69
8890;BME280;4481;43.406;24.454;2022-11-12T10:18:28;78169.28;;;-144.09;96.79
8890;BME280;4481;43.406;24.454;2022-11-12T10:21:03;78196.44;;;-144.09;96.82
8890;BME280;4481;43.406;24.454;2022-11-12T10:23:37;78223.63;;;-144.09;98.02
8890;BME280;4481;43.406;24.454;2022-11-12T10:26:11;78188.09;;;-144.09;97.79
8890;BME280;4481;43.406;24.454;2022-11-12T10:28:41;78152.56;;;-144.09;96.97
8890;BME280;4481;43.406;24.454;2022-11-12T10:31:11;78152.56;;;-144.09;96.50
8890;BME280;4481;43.406;24.454;2022-11-12T10:33:38;78133.72;;;-144.09;96.47
8890;BME280;4481;43.406;24.454;2022-11-12T10:36:26;78108.66;;;-144.09;95.39
8890;BME280;4481;43.406;24.454;2022-11-12T10:38:55;78129.56;;;-144.09;95.14
8890;BME280;4481;43.406;24.454;2022-11-12T10:41:24;78196.44;;;-144.09;96.81
8890;BME280;4481;43.406;24.454;2022-11-12T10:43:57;78196.44;;;-144.09;97.20
8890;BME280;4481;43.406;24.454;2022-11-12T10:46:25;78169.28;;;-144.09;97.24
8890;BME280;4481;43.406;24.454;2022-11-12T10:48:56;78156.72;;;-144.09;96.41
8890;BME280;4481;43.406;24.454;2022-11-12T10:51:25;78144.19;;;-144.09;95.24
8890;BME280;4481;43.406;24.454;2022-11-12T10:53:51;78181.81;;;-144.09;96.62
8890;BME280;4481;43.406;24.454;2022-11-12T10:56:25;78158.81;;;-144.09;96.61
8890;BME280;4481;43.406;24.454;2022-11-12T10:59:13;78171.38;;;-144.09;95.78
8890;BME280;4481;43.406;24.454;2022-11-12T11:01:39;78135.81;;;-144.09;95.58
8890;BME280;4481;43.406;24.454;2022-11-12T11:04:15;78123.28;;;-144.09;95.86
8890;BME280;4481;43.406;24.454;2022-11-12T11:06:42;78100.28;;;-144.09;94.12
8890;BME280;4481;43.406;24.454;2022-11-12T11:09:14;78102.38;;;-144.09;93.35
8890;BME280;4481;43.406;24.454;2022-11-12T11:11:49;78094.00;;;-144.09;93.94
8890;BME280;4481;43.406;24.454;2022-11-12T11:14:30;78073.09;;;-144.09;92.95
8890;BME280;4481;43.406;24.454;2022-11-12T11:16:59;78081.47;;;-144.09;93.35
8890;BME280;4481;43.406;24.454;2022-11-12T11:19:32;78068.94;;;-144.09;93.81
8890;BME280;4481;43.406;24.454;2022-11-12T11:22:17;78075.19;;;-144.09;92.96
8890;BME280;4481;43.406;24.454;2022-11-12T11:24:53;78108.66;;;-144.09;94.28
8890;BME280;4481;43.406;24.454;2022-11-12T11:27:31;78119.09;;;-144.09;93.96
8890;BME280;4481;43.406;24.454;2022-11-12T11:30:06;78083.56;;;-144.09;93.63
8890;BME280;4481;43.406;24.454;2022-11-12T11:32:59;78033.38;;;-144.09;92.88
8890;BME280;4481;43.406;24.454;2022-11-12T11:35:40;78066.84;;;-144.09;92.12
8890;BME280;4481;43.406;24.454;2022-11-12T11:38:29;78125.38;;;-144.09;92.14
8890;BME280;4481;43.406;24.454;2022-11-12T11:41:06;78108.66;;;-144.09;92.05
8890;BME280;4481;43.406;24.454;2022-11-12T11:43:45;78123.28;;;-144.09;92.48
8890;BME280;4481;43.406;24.454;2022-11-12T11:46:21;78112.84;;;-144.09;92.50
8890;BME280;4481;43.406;24.454;2022-11-12T11:48:56;78075.19;;;-144.09;92.04
8890;BME280;4481;43.406;24.454;2022-11-12T11:51:35;78077.28;;;-144.09;90.33
8890;BME280;4481;43.406;24.454;2022-11-12T11:54:14;78052.22;;;-144.09;90.28
8890;BME280;4481;43.406;24.454;2022-11-12T11:56:48;78039.66;;;-144.09;90.52
8890;BME280;4481;43.406;24.454;2022-11-12T11:59:27;78108.66;;;-144.09;92.42
8890;BME280;4481;43.406;24.454;2022-11-12T12:02:21;78089.84;;;-144.09;89.31
8890;BME280;4481;43.406;24.454;2022-11-12T12:04:57;78100.28;;;-144.09;89.52
8890;BME280;4481;43.406;24.454;2022-11-12T12:07:33;78123.28;;;-144.09;89.36
8890;BME280;4481;43.406;24.454;2022-11-12T12:10:05;78100.28;;;-144.09;89.23
8890;BME280;4481;43.406;24.454;2022-11-12T12:12:47;78091.94;;;-144.09;89.36
8890;BME280;4481;43.406;24.454;2022-11-12T12:15:34;78089.84;;;-144.09;89.46
8890;BME280;4481;43.406;24.454;2022-11-12T12:18:10;78060.56;;;-144.09;87.91
8890;BME280;4481;43.406;24.454;2022-11-12T12:20:45;78043.84;;;-144.09;87.00
8890;BME280;4481;43.406;24.454;2022-11-12T12:23:22;78054.28;;;-144.09;87.69
8890;BME280;4481;43.406;24.454;2022-11-12T12:25:51;78077.28;;;-144.09;88.67
8890;BME280;4481;43.406;24.454;2022-11-12T12:28:26;78085.66;;;-144.09;88.44
8890;BME280;4481;43.406;24.454;2022-11-12T12:31:01;78110.75;;;-144.09;89.58
8890;BME280;4481;43.406;24.454;2022-11-12T12:33:34;78083.56;;;-144.09;88.39
8890;BME280;4481;43.406;24.454;2022-11-12T12:36:05;78106.56;;;-144.09;88.09
8890;BME280;4481;43.406;24.454;2022-11-12T12:38:39;78156.72;;;-144.09;89.20
8890;BME280;4481;43.406;24.454;2022-11-12T12:41:12;78131.66;;;-144.09;88.74
8890;BME280;4481;43.406;24.454;2022-11-12T12:43:45;78123.28;;;-144.09;89.15
8890;BME280;4481;43.406;24.454;2022-11-12T12:46:16;78106.56;;;-144.09;88.26
8890;BME280;4481;43.406;24.454;2022-11-12T12:48:46;78121.19;;;-144.09;88.62
8890;BME280;4481;43.406;24.454;2022-11-12T12:51:12;78114.91;;;-144.09;89.28
8890;BME280;4481;43.406;24.454;2022-11-12T12:53:38;78177.63;;;-144.09;88.56